Un Marmara — TCCU8 — position and weather

sailwx.info

Track history (hours):
 
Tides and Currents Weather Stations Pressure Air Temp Water Temp Dewpoint Dewpoint Depression Visibility Wind Speed Wind Dir Waves Ship Positions

Un Marmara

Last reported at 2018-Feb-20 23:59 UTC. Time now 2018-Feb-23 01:04 UTC.
Position N 39°55' E 018°50'.

Length 193 m; draft 6.8 m.

Type: Ship (hazmat cat A). MMSI: 271000748.

Date/timePositionNaut miles runAvg speedWind from/ knotsBaromVisibWave heightAir tempDewpointWater temp
2018-Feb-20 23:59N 39°55' E 018°50'35720.1
2018-Feb-20 06:14N 44°28' E 013°41'419.5
2018-Feb-20 06:00N 44°32' E 013°38'1019.5
2018-Feb-20 05:30N 44°40' E 013°31'1019.7
2018-Feb-20 05:01N 44°49' E 013°23'1019.8
2018-Feb-20 04:30N 44°57' E 013°16'1019.7
2018-Feb-20 04:00N 45°06' E 013°09'1019.7
2018-Feb-20 03:30N 45°15' E 013°04'918.2
2018-Feb-20 03:01N 45°24' E 013°06'1020.0
2018-Feb-20 02:30N 45°31' E 013°16'1019.8
2018-Feb-20 02:01N 45°36' E 013°28'1019.7
2018-Feb-20 01:31N 45°39' E 013°41'3 5.2
2018-Feb-20 01:01N 45°39' E 013°45'0 0.0
2018-Feb-20 00:30N 45°39' E 013°45'0 0.0
2018-Feb-19 23:52N 45°39' E 013°45'0 0.0
2018-Feb-19 23:28N 45°39' E 013°45'0 0.0
2018-Feb-19 22:58N 45°39' E 013°45'0 0.0
2018-Feb-19 22:28N 45°39' E 013°45'0 0.0
2018-Feb-19 21:51N 45°39' E 013°45'0 0.0
2018-Feb-19 21:24N 45°39' E 013°45'0 0.0
2018-Feb-19 20:57N 45°39' E 013°45'0 0.0
2018-Feb-19 20:30N 45°39' E 013°45'0 0.0
2018-Feb-19 19:59N 45°39' E 013°45'0 0.0
2018-Feb-19 19:29N 45°39' E 013°45'0 0.0
2018-Feb-19 18:59N 45°39' E 013°45'0 0.0
2018-Feb-19 18:26N 45°39' E 013°45'0 0.0
2018-Feb-19 17:56N 45°39' E 013°45'0 0.0
2018-Feb-19 17:28N 45°39' E 013°45'0 0.0
2018-Feb-19 16:58N 45°39' E 013°45'0 0.1
2018-Feb-19 16:30N 45°39' E 013°45'2 3.9
2018-Feb-19 16:00N 45°39' E 013°42'1 2.1
2018-Feb-19 15:30N 45°39' E 013°41'2 4.6
2018-Feb-19 15:00N 45°38' E 013°38'611.7
2018-Feb-19 14:30N 45°35' E 013°31'816.3
2018-Feb-19 14:00N 45°30' E 013°22'918.3
2018-Feb-19 13:30N 45°23' E 013°13'1018.8
2018-Feb-19 13:00N 45°13' E 013°13'918.4
2018-Feb-19 12:30N 45°05' E 013°16'918.8
2018-Feb-19 12:00N 44°56' E 013°22'918.6
2018-Feb-19 11:30N 44°48' E 013°29'1018.9
2018-Feb-19 11:00N 44°40' E 013°36'  
2018-Feb-13 23:02N 44°22' E 013°48'719.4
2018-Feb-13 22:41N 44°27' E 013°42'519.4
2018-Feb-13 22:26N 44°31' E 013°38'819.4
2018-Feb-13 22:01N 44°38' E 013°32'1019.2
2018-Feb-13 21:31N 44°47' E 013°25'712.9
2018-Feb-13 21:00N 44°52' E 013°21'612.8
2018-Feb-13 20:30N 44°58' E 013°16'612.8
2018-Feb-13 20:00N 45°03' E 013°11'612.5
2018-Feb-13 19:30N 45°08' E 013°06'612.5
2018-Feb-13 19:00N 45°14' E 013°04'612.6
2018-Feb-13 18:30N 45°21' E 013°03'612.2
2018-Feb-13 18:00N 45°25' E 013°08'612.8
2018-Feb-13 17:30N 45°30' E 013°15'612.7
2018-Feb-13 17:00N 45°34' E 013°22'612.7
2018-Feb-13 16:30N 45°36' E 013°30'612.0
2018-Feb-13 16:00N 45°39' E 013°38'510.0
2018-Feb-13 15:30N 45°39' E 013°45'0 0.0
2018-Feb-13 15:00N 45°39' E 013°45'0 0.0
2018-Feb-13 14:30N 45°39' E 013°45'0 0.0
2018-Feb-13 13:55N 45°39' E 013°45'0 0.0
2018-Feb-13 13:22N 45°39' E 013°45'0 0.0
2018-Feb-13 12:58N 45°39' E 013°45'0 0.0
2018-Feb-13 12:24N 45°39' E 013°45'0 0.0
2018-Feb-13 12:00N 45°39' E 013°45'0 0.0
2018-Feb-13 11:24N 45°39' E 013°45'0 0.0
2018-Feb-13 11:00N 45°39' E 013°45'0 0.0
2018-Feb-13 10:30N 45°39' E 013°45'0 0.0
2018-Feb-13 09:59N 45°39' E 013°45'0 0.0
2018-Feb-13 09:29N 45°39' E 013°45'0 0.0
2018-Feb-13 08:56N 45°39' E 013°45'0 0.0
2018-Feb-13 08:26N 45°39' E 013°45'0 0.0
2018-Feb-13 07:56N 45°39' E 013°45'0 0.0
2018-Feb-13 07:28N 45°39' E 013°45'0 0.0
2018-Feb-13 06:58N 45°39' E 013°45'0 0.0
2018-Feb-13 06:25N 45°39' E 013°45'0 0.0
2018-Feb-13 05:55N 45°39' E 013°45'0 0.0
2018-Feb-13 05:31N 45°39' E 013°45'0 0.0
2018-Feb-13 04:57N 45°39' E 013°45'0 0.0
2018-Feb-13 04:30N 45°39' E 013°45'0 0.0
2018-Feb-13 03:57N 45°39' E 013°45'0 0.0
2018-Feb-13 03:27N 45°39' E 013°45'0 0.0
2018-Feb-13 02:59N 45°39' E 013°45'0 0.0
2018-Feb-13 02:29N 45°39' E 013°45'0 0.0
2018-Feb-13 01:59N 45°39' E 013°45'0 0.0
2018-Feb-13 01:29N 45°39' E 013°45'0 0.0
2018-Feb-13 00:59N 45°39' E 013°45'0 0.0
2018-Feb-13 00:28N 45°39' E 013°45'0 0.0
2018-Feb-12 23:58N 45°39' E 013°45'0 0.0
2018-Feb-12 23:22N 45°39' E 013°45'0 0.0
2018-Feb-12 22:58N 45°39' E 013°45'0 0.0
2018-Feb-12 22:30N 45°39' E 013°45'0 0.0
2018-Feb-12 22:00N 45°39' E 013°45'0 0.0
2018-Feb-12 21:30N 45°39' E 013°45'0 0.0
2018-Feb-12 21:00N 45°39' E 013°45'0 0.0
2018-Feb-12 20:18N 45°39' E 013°45'0 0.0
2018-Feb-12 19:59N 45°39' E 013°45'0 0.0
2018-Feb-12 19:26N 45°39' E 013°45'0 0.0
2018-Feb-12 18:59N 45°39' E 013°45'0 0.0
2018-Feb-12 18:29N 45°39' E 013°45'0 0.0
2018-Feb-12 17:52N 45°39' E 013°45'0 0.0
2018-Feb-12 17:30N 45°39' E 013°45'0 0.4
2018-Feb-12 17:00N 45°39' E 013°45'4 8.8
2018-Feb-12 16:30N 45°38' E 013°39'918.5
2018-Feb-12 16:00N 45°33' E 013°28'918.5
2018-Feb-12 15:31N 45°27' E 013°18'1019.1
2018-Feb-12 15:00N 45°19' E 013°11'1019.7
2018-Feb-12 14:30N 45°10' E 013°17'1019.6
2018-Feb-12 14:00N 45°01' E 013°22'1019.6
2018-Feb-12 13:30N 44°52' E 013°29'1020.0
2018-Feb-12 13:01N 44°44' E 013°36'  
Track history (hours):
 
Tides and Currents Weather Stations Pressure Air Temp Water Temp Dewpoint Dewpoint Depression Visibility Wind Speed Wind Dir Waves Ship Positions

Un Marmara

Last reported at 2018-Feb-20 23:59 UTC. Time now 2018-Feb-23 01:04 UTC.
Position N 39°55' E 018°50'.

Length 193 m; draft 6.8 m.

Type: Ship (hazmat cat A). MMSI: 271000748.

Date/timePositionNaut miles runAvg speedWind from/ knotsBaromVisibWave heightAir tempDewpointWater temp
2018-Feb-20 23:59N 39°55' E 018°50'35720.1
2018-Feb-20 06:14N 44°28' E 013°41'419.5
2018-Feb-20 06:00N 44°32' E 013°38'1019.5
2018-Feb-20 05:30N 44°40' E 013°31'1019.7
2018-Feb-20 05:01N 44°49' E 013°23'1019.8
2018-Feb-20 04:30N 44°57' E 013°16'1019.7
2018-Feb-20 04:00N 45°06' E 013°09'1019.7
2018-Feb-20 03:30N 45°15' E 013°04'918.2
2018-Feb-20 03:01N 45°24' E 013°06'1020.0
2018-Feb-20 02:30N 45°31' E 013°16'1019.8
2018-Feb-20 02:01N 45°36' E 013°28'1019.7
2018-Feb-20 01:31N 45°39' E 013°41'3 5.2
2018-Feb-20 01:01N 45°39' E 013°45'0 0.0
2018-Feb-20 00:30N 45°39' E 013°45'0 0.0
2018-Feb-19 23:52N 45°39' E 013°45'0 0.0
2018-Feb-19 23:28N 45°39' E 013°45'0 0.0
2018-Feb-19 22:58N 45°39' E 013°45'0 0.0
2018-Feb-19 22:28N 45°39' E 013°45'0 0.0
2018-Feb-19 21:51N 45°39' E 013°45'0 0.0
2018-Feb-19 21:24N 45°39' E 013°45'0 0.0
2018-Feb-19 20:57N 45°39' E 013°45'0 0.0
2018-Feb-19 20:30N 45°39' E 013°45'0 0.0
2018-Feb-19 19:59N 45°39' E 013°45'0 0.0
2018-Feb-19 19:29N 45°39' E 013°45'0 0.0
2018-Feb-19 18:59N 45°39' E 013°45'0 0.0
2018-Feb-19 18:26N 45°39' E 013°45'0 0.0
2018-Feb-19 17:56N 45°39' E 013°45'0 0.0
2018-Feb-19 17:28N 45°39' E 013°45'0 0.0
2018-Feb-19 16:58N 45°39' E 013°45'0 0.1
2018-Feb-19 16:30N 45°39' E 013°45'2 3.9
2018-Feb-19 16:00N 45°39' E 013°42'1 2.1
2018-Feb-19 15:30N 45°39' E 013°41'2 4.6
2018-Feb-19 15:00N 45°38' E 013°38'611.7
2018-Feb-19 14:30N 45°35' E 013°31'816.3
2018-Feb-19 14:00N 45°30' E 013°22'918.3
2018-Feb-19 13:30N 45°23' E 013°13'1018.8
2018-Feb-19 13:00N 45°13' E 013°13'918.4
2018-Feb-19 12:30N 45°05' E 013°16'918.8
2018-Feb-19 12:00N 44°56' E 013°22'918.6
2018-Feb-19 11:30N 44°48' E 013°29'1018.9
2018-Feb-19 11:00N 44°40' E 013°36'  
2018-Feb-13 23:02N 44°22' E 013°48'719.4
2018-Feb-13 22:41N 44°27' E 013°42'519.4
2018-Feb-13 22:26N 44°31' E 013°38'819.4
2018-Feb-13 22:01N 44°38' E 013°32'1019.2
2018-Feb-13 21:31N 44°47' E 013°25'712.9
2018-Feb-13 21:00N 44°52' E 013°21'612.8
2018-Feb-13 20:30N 44°58' E 013°16'612.8
2018-Feb-13 20:00N 45°03' E 013°11'612.5
2018-Feb-13 19:30N 45°08' E 013°06'612.5
2018-Feb-13 19:00N 45°14' E 013°04'612.6
2018-Feb-13 18:30N 45°21' E 013°03'612.2
2018-Feb-13 18:00N 45°25' E 013°08'612.8
2018-Feb-13 17:30N 45°30' E 013°15'612.7
2018-Feb-13 17:00N 45°34' E 013°22'612.7
2018-Feb-13 16:30N 45°36' E 013°30'612.0
2018-Feb-13 16:00N 45°39' E 013°38'510.0
2018-Feb-13 15:30N 45°39' E 013°45'0 0.0
2018-Feb-13 15:00N 45°39' E 013°45'0 0.0
2018-Feb-13 14:30N 45°39' E 013°45'0 0.0
2018-Feb-13 13:55N 45°39' E 013°45'0 0.0
2018-Feb-13 13:22N 45°39' E 013°45'0 0.0
2018-Feb-13 12:58N 45°39' E 013°45'0 0.0
2018-Feb-13 12:24N 45°39' E 013°45'0 0.0
2018-Feb-13 12:00N 45°39' E 013°45'0 0.0
2018-Feb-13 11:24N 45°39' E 013°45'0 0.0
2018-Feb-13 11:00N 45°39' E 013°45'0 0.0
2018-Feb-13 10:30N 45°39' E 013°45'0 0.0
2018-Feb-13 09:59N 45°39' E 013°45'0 0.0
2018-Feb-13 09:29N 45°39' E 013°45'0 0.0
2018-Feb-13 08:56N 45°39' E 013°45'0 0.0
2018-Feb-13 08:26N 45°39' E 013°45'0 0.0
2018-Feb-13 07:56N 45°39' E 013°45'0 0.0
2018-Feb-13 07:28N 45°39' E 013°45'0 0.0
2018-Feb-13 06:58N 45°39' E 013°45'0 0.0
2018-Feb-13 06:25N 45°39' E 013°45'0 0.0
2018-Feb-13 05:55N 45°39' E 013°45'0 0.0
2018-Feb-13 05:31N 45°39' E 013°45'0 0.0
2018-Feb-13 04:57N 45°39' E 013°45'0 0.0
2018-Feb-13 04:30N 45°39' E 013°45'0 0.0
2018-Feb-13 03:57N 45°39' E 013°45'0 0.0
2018-Feb-13 03:27N 45°39' E 013°45'0 0.0
2018-Feb-13 02:59N 45°39' E 013°45'0 0.0
2018-Feb-13 02:29N 45°39' E 013°45'0 0.0
2018-Feb-13 01:59N 45°39' E 013°45'0 0.0
2018-Feb-13 01:29N 45°39' E 013°45'0 0.0
2018-Feb-13 00:59N 45°39' E 013°45'0 0.0
2018-Feb-13 00:28N 45°39' E 013°45'0 0.0
2018-Feb-12 23:58N 45°39' E 013°45'0 0.0
2018-Feb-12 23:22N 45°39' E 013°45'0 0.0
2018-Feb-12 22:58N 45°39' E 013°45'0 0.0
2018-Feb-12 22:30N 45°39' E 013°45'0 0.0
2018-Feb-12 22:00N 45°39' E 013°45'0 0.0
2018-Feb-12 21:30N 45°39' E 013°45'0 0.0
2018-Feb-12 21:00N 45°39' E 013°45'0 0.0
2018-Feb-12 20:18N 45°39' E 013°45'0 0.0
2018-Feb-12 19:59N 45°39' E 013°45'0 0.0
2018-Feb-12 19:26N 45°39' E 013°45'0 0.0
2018-Feb-12 18:59N 45°39' E 013°45'0 0.0
2018-Feb-12 18:29N 45°39' E 013°45'0 0.0
2018-Feb-12 17:52N 45°39' E 013°45'0 0.0
2018-Feb-12 17:30N 45°39' E 013°45'0 0.4
2018-Feb-12 17:00N 45°39' E 013°45'4 8.8
2018-Feb-12 16:30N 45°38' E 013°39'918.5
2018-Feb-12 16:00N 45°33' E 013°28'918.5
2018-Feb-12 15:31N 45°27' E 013°18'1019.1
2018-Feb-12 15:00N 45°19' E 013°11'1019.7
2018-Feb-12 14:30N 45°10' E 013°17'1019.6
2018-Feb-12 14:00N 45°01' E 013°22'1019.6
2018-Feb-12 13:30N 44°52' E 013°29'1020.0
2018-Feb-12 13:01N 44°44' E 013°36'  

Dump ship's entire track history